| time (UTC) | temp F | wind direction | speed MPH | gust MPH | rain 1hr in | rain 24hr in | rain mn in | humidity % | barometer mb |
| 20260906161218 | 86 | 0.0 | 0.0 | 0.00 | 0.00 | 0.00 | 64 | 995.4 | |
| 20260906155718 | 86 | 0.0 | 0.0 | 0.00 | 0.00 | 0.00 | 63 | 995.3 | |
| 20260906154219 | 86 | 0.0 | 0.0 | 0.00 | 0.00 | 0.00 | 62 | 995.2 | |
| 20260906152718 | 86 | 0.0 | 0.0 | 0.00 | 0.00 | 0.00 | 62 | 995.0 | |
| 20260906151221 | 86 | 0.0 | 0.0 | 0.00 | 0.00 | 0.00 | 61 | 994.8 | |
| 20260906145718 | 87 | 0.0 | 0.0 | 0.00 | 0.00 | 0.00 | 60 | 994.7 | |
| 20260906144218 | 87 | 0.0 | 0.0 | 0.00 | 0.00 | 0.00 | 59 | 994.6 | |
| 20260906142718 | 87 | 0.0 | 0.0 | 0.00 | 0.00 | 0.00 | 59 | 994.5 | |
| 20260906141218 | 87 | 0.0 | 0.0 | 0.00 | 0.00 | 0.00 | 58 | 994.2 | |
| 20260906135718 | 88 | 0.0 | 0.0 | 0.00 | 0.00 | 0.00 | 58 | 994.0 | |
| 20260906134218 | 88 | 0.0 | 0.0 | 0.00 | 0.00 | 0.00 | 57 | 993.8 | |
| 20260906132718 | 88 | 0.0 | 0.0 | 0.00 | 0.00 | 0.00 | 58 | 993.6 | |
| 20260906131213 | 88 | 0.0 | 0.0 | 0.00 | 0.00 | 0.00 | 58 | 993.5 | |
| 20260906125718 | 88 | 0.0 | 0.0 | 0.00 | 0.00 | 0.00 | 58 | 993.3 | |
| 20260906124217 | 89 | 0.0 | 0.0 | 0.00 | 0.00 | 0.00 | 57 | 993.1 | |
| 20260906122717 | 89 | 0.0 | 0.0 | 0.00 | 0.00 | 0.00 | 56 | 993.0 | |
| 20260906121217 | 90 | 0.0 | 0.0 | 0.00 | 0.00 | 0.00 | 56 | 992.8 | |
| 20260906115717 | 89 | 0.0 | 0.0 | 0.00 | 0.00 | 0.00 | 56 | 992.6 | |
| 20260906114217 | 91 | 0.0 | 0.0 | 0.00 | 0.00 | 0.00 | 54 | 992.5 | |
| 20260906112716 | 91 | 0.0 | 0.0 | 0.00 | 0.00 | 0.00 | 54 | 992.5 | |
| 20260906111217 | 90 | 0.0 | 0.0 | 0.00 | 0.00 | 0.00 | 55 | 992.5 | |
| 20260906105716 | 91 | 0.0 | 0.0 | 0.00 | 0.00 | 0.00 | 53 | 992.5 | |
| 20260906104216 | 91 | 0.0 | 0.0 | 0.00 | 0.00 | 0.00 | 52 | 992.5 | |
| 20260906102716 | 92 | 0.0 | 0.0 | 0.00 | 0.00 | 0.00 | 49 | 992.5 | |
| 20260906101216 | 91 | 0.0 | 0.0 | 0.00 | 0.00 | 0.00 | 49 | 992.6 | |
| 20260906095716 | 92 | 0.0 | 0.0 | 0.00 | 0.00 | 0.00 | 48 | 992.9 | |
| 20260906094216 | 93 | 0.0 | 0.0 | 0.00 | 0.00 | 0.00 | 47 | 993.0 | |
| 20260906092716 | 92 | 0.0 | 0.0 | 0.00 | 0.00 | 0.00 | 48 | 993.2 | |
| 20260906091215 | 92 | 0.0 | 0.0 | 0.00 | 0.00 | 0.00 | 48 | 993.4 | |
| 20260906085716 | 92 | 0.0 | 0.0 | 0.00 | 0.00 | 0.00 | 50 | 993.5 | |
| 20260906084216 | 91 | 0.0 | 0.0 | 0.00 | 0.00 | 0.00 | 51 | 993.7 | |
| 20260906082716 | 91 | 0.0 | 0.0 | 0.00 | 0.00 | 0.00 | 50 | 993.9 | |
| 20260906081215 | 92 | 0.0 | 0.0 | 0.00 | 0.00 | 0.00 | 48 | 994.1 | |
| 20260906075715 | 93 | 0.0 | 0.0 | 0.00 | 0.00 | 0.00 | 49 | 994.2 | |
| 20260906074215 | 91 | 0.0 | 0.0 | 0.00 | 0.00 | 0.00 | 50 | 994.4 | |
| 20260906072715 | 90 | 0.0 | 0.0 | 0.00 | 0.00 | 0.00 | 53 | 994.6 | |
| 20260906071215 | 89 | 0.0 | 0.0 | 0.00 | 0.00 | 0.00 | 55 | 994.9 | |
| 20260906065715 | 88 | 0.0 | 0.0 | 0.00 | 0.00 | 0.00 | 55 | 995.2 | |
| 20260906064215 | 91 | 0.0 | 0.0 | 0.00 | 0.00 | 0.00 | 51 | 995.2 | |
| 20260906062715 | 90 | 0.0 | 0.0 | 0.00 | 0.00 | 0.00 | 53 | 995.3 | |
| 20260906061214 | 90 | 0.0 | 0.0 | 0.00 | 0.00 | 0.00 | 52 | 995.3 | |
| 20260906055714 | 89 | 0.0 | 0.0 | 0.00 | 0.00 | 0.00 | 55 | 995.5 | |
| 20260906054214 | 88 | 0.0 | 0.0 | 0.00 | 0.00 | 0.00 | 56 | 995.6 | |
| 20260906052714 | 88 | 0.0 | 0.0 | 0.00 | 0.00 | 0.00 | 56 | 995.6 | |
| 20260906051214 | 88 | 0.0 | 0.0 | 0.00 | 0.00 | 0.00 | 56 | 995.7 | |
| 20260906045713 | 88 | 0.0 | 0.0 | 0.00 | 0.00 | 0.00 | 56 | 995.7 | |
| 20260906044214 | 89 | 0.0 | 0.0 | 0.00 | 0.00 | 0.00 | 56 | 995.6 | |
| 20260906042713 | 87 | 0.0 | 0.0 | 0.00 | 0.00 | 0.00 | 57 | 995.6 | |
| 20260906041213 | 87 | 0.0 | 0.0 | 0.00 | 0.00 | 0.00 | 58 | 995.4 | |
| 20260906035713 | 86 | 0.0 | 0.0 | 0.00 | 0.00 | 0.00 | 61 | 995.4 | |
| 20260906034213 | 86 | 0.0 | 0.0 | 0.00 | 0.00 | 0.00 | 64 | 995.2 | |
| 20260906032713 | 85 | 0.0 | 0.0 | 0.00 | 0.00 | 0.00 | 65 | 995.1 | |
| 20260906031213 | 85 | 0.0 | 0.0 | 0.00 | 0.00 | 0.00 | 67 | 995.1 | |
| 20260906025712 | 84 | 0.0 | 0.0 | 0.00 | 0.00 | 0.00 | 68 | 994.8 | |
| 20260906024212 | 83 | 0.0 | 0.0 | 0.00 | 0.00 | 0.00 | 70 | 994.5 | |
| 20260906022713 | 83 | 0.0 | 0.0 | 0.00 | 0.00 | 0.00 | 71 | 994.4 | |
| 20260906021212 | 83 | 0.0 | 0.0 | 0.00 | 0.00 | 0.00 | 72 | 994.3 | |
| 20260906015712 | 83 | 0.0 | 0.0 | 0.00 | 0.00 | 0.00 | 72 | 994.1 | |
| 20260906014212 | 82 | 0.0 | 0.0 | 0.00 | 0.00 | 0.00 | 72 | 993.9 | |
| 20260906012725 | 82 | 0.0 | 0.0 | 0.00 | 0.00 | 0.00 | 72 | 989.3 | |
| 20260906012030 | 82 | 0.0 | 0.0 | 0.00 | 0.00 | 0.00 | 72 | 993.8 | |
| 20260906010531 | 82 | 0.0 | 0.0 | 0.00 | 0.00 | 0.00 | 72 | 993.8 | |
| 20260906005030 | 82 | 0.0 | 0.0 | 0.00 | 0.00 | 0.00 | 72 | 993.6 | |
| 20260906003530 | 82 | 0.0 | 0.0 | 0.00 | 0.00 | 0.00 | 72 | 993.6 | |
| 20260906002030 | 82 | 0.0 | 0.0 | 0.00 | 0.00 | 0.00 | 71 | 993.5 | |
| 20260906000530 | 82 | 0.0 | 0.0 | 0.00 | 0.00 | 0.00 | 71 | 993.3 | |
| 20260905235030 | 82 | 0.0 | 0.0 | 0.00 | 0.00 | 0.00 | 71 | 993.4 | |
| 20260905233529 | 82 | 0.0 | 0.0 | 0.00 | 0.00 | 0.00 | 71 | 993.4 | |
| 20260905232029 | 82 | 0.0 | 0.0 | 0.00 | 0.00 | 0.00 | 71 | 993.2 | |
| 20260905230529 | 82 | 0.0 | 0.0 | 0.00 | 0.00 | 0.00 | 71 | 993.1 | |
| 20260905225029 | 82 | 0.0 | 0.0 | 0.00 | 0.00 | 0.00 | 71 | 993.0 | |
| 20260905223529 | 82 | 0.0 | 0.0 | 0.00 | 0.00 | 0.00 | 70 | 993.1 | |
| 20260905222029 | 83 | 0.0 | 0.0 | 0.00 | 0.00 | 0.00 | 70 | 992.9 | |
| 20260905220529 | 83 | 0.0 | 0.0 | 0.00 | 0.00 | 0.00 | 70 | 992.8 | |
| 20260905215029 | 83 | 0.0 | 0.0 | 0.00 | 0.00 | 0.00 | 69 | 992.8 | |
| 20260905213529 | 83 | 0.0 | 0.0 | 0.00 | 0.00 | 0.00 | 69 | 992.8 | |
| 20260905212028 | 83 | 0.0 | 0.0 | 0.00 | 0.00 | 0.00 | 69 | 992.9 | |
| 20260905210528 | 83 | 0.0 | 0.0 | 0.00 | 0.00 | 0.00 | 68 | 993.0 | |
| 20260905205028 | 83 | 0.0 | 0.0 | 0.00 | 0.00 | 0.00 | 67 | 993.1 | |
| 20260905203540 | 83 | 0.0 | 0.0 | 0.00 | 0.00 | 0.00 | 67 | 988.7 | |
| 20260905203240 | 83 | 0.0 | 0.0 | 0.00 | 0.00 | 0.00 | 67 | 993.3 | |
| 20260905201739 | 84 | 0.0 | 0.0 | 0.00 | 0.00 | 0.00 | 67 | 993.4 | |
| 20260905200240 | 84 | 0.0 | 0.0 | 0.00 | 0.00 | 0.00 | 67 | 993.5 | |
| 20260905194739 | 84 | 0.0 | 0.0 | 0.00 | 0.00 | 0.00 | 67 | 993.6 | |
| 20260905193239 | 84 | 0.0 | 0.0 | 0.00 | 0.00 | 0.00 | 65 | 993.7 | |
| 20260905191739 | 84 | 0.0 | 0.0 | 0.00 | 0.00 | 0.00 | 64 | 993.9 | |
| 20260905190239 | 84 | 0.0 | 0.0 | 0.00 | 0.00 | 0.00 | 64 | 993.9 | |
| 20260905184738 | 84 | 0.0 | 0.0 | 0.00 | 0.00 | 0.00 | 64 | 994.1 | |
| 20260905183239 | 84 | 0.0 | 0.0 | 0.00 | 0.00 | 0.00 | 65 | 994.3 | |
| 20260905181739 | 84 | 0.0 | 0.0 | 0.00 | 0.00 | 0.00 | 65 | 994.4 | |
| 20260905180238 | 85 | 0.0 | 0.0 | 0.00 | 0.00 | 0.00 | 65 | 994.4 | |
| 20260905174738 | 85 | 0.0 | 0.0 | 0.00 | 0.00 | 0.00 | 65 | 994.6 | |
| 20260905173238 | 85 | 0.0 | 0.0 | 0.00 | 0.00 | 0.00 | 64 | 994.6 | |
| 20260905171738 | 85 | 0.0 | 0.0 | 0.00 | 0.00 | 0.00 | 64 | 994.6 | |
| 20260905170238 | 85 | 0.0 | 0.0 | 0.00 | 0.00 | 0.00 | 64 | 994.5 | |
| 20260905164737 | 85 | 0.0 | 0.0 | 0.00 | 0.00 | 0.00 | 63 | 994.5 | |
| 20260905163238 | 85 | 0.0 | 0.0 | 0.00 | 0.00 | 0.00 | 63 | 994.4 | |
| 20260905161737 | 85 | 0.0 | 0.0 | 0.00 | 0.00 | 0.00 | 63 | 994.2 |